VE-0108 weather

La Ladera Heliport
Delta Amacuro, Venezuela

Public forecast

Using degrees Celsius for public forecast. Weather courtesy of forecast.io.

Closest aviation weather report (METAR) to La Ladera Heliport

Report is more than 6 hours old.

Closest report is MaturĂ­n Airport, 58.0 nm (107.4 km) WNW. Retrieved 2018/12/04 12:00 UTC (1 year ago):

SVMT 041200Z /////KT 9999 SCT010 BKN300 23/22 Q1011

Closest aviation forecast (TAF) to La Ladera Heliport

Closest forecast is Piarco International Airport, 96.4 nm (178.6 km) NE. Retrieved 2020/02/26 12:35 UTC (5 hours ago):

TAF TTPP 261000Z 2612/2712 10010KT 9999 FEW025 BECMG 2702/2704 00000KT